Time;durP1;ratioP1;P1;durP2;ratioP2;P2;SDS_P1;SDS_P2;PMS_P1;PMS_P2;Temp;Humidity;BMP_temperature;BMP_pressure;BME280_temperature;BME280_humidity;BME280_pressure;Samples;Min_cycle;Max_cycle;Signal;HPM_P1;HPM_P2
2023/07/06 00:00:21;;;;;;;20.50;6.90;;;;;;;26.65;67.80;99920.17;1770935;81;21296;-80
2023/07/06 00:03:27;;;;;;;21.90;6.97;;;;;;;26.69;67.91;99911.45;1770863;81;21331;-80
2023/07/06 00:06:36;;;;;;;13.30;6.33;;;;;;;26.58;68.45;99905.62;1770188;81;21323;-80
2023/07/06 00:09:40;;;;;;;15.40;6.58;;;;;;;26.66;68.69;99909.78;1770776;81;21300;-80
2023/07/06 00:12:47;;;;;;;17.52;7.15;;;;;;;26.66;68.78;99910.63;1770314;80;21804;-80
2023/07/06 00:15:55;;;;;;;11.88;6.65;;;;;;;26.54;69.36;99900.89;1770985;81;21930;-80
2023/07/06 00:19:01;;;;;;;20.85;6.25;;;;;;;26.53;69.55;99898.66;1770863;81;21284;-80
2023/07/06 00:22:07;;;;;;;13.48;7.05;;;;;;;26.36;70.63;99901.02;1769881;81;21898;-79
2023/07/06 00:25:13;;;;;;;14.47;6.47;;;;;;;26.36;70.83;99901.02;1769403;81;21333;-80
2023/07/06 00:28:24;;;;;;;16.20;6.87;;;;;;;26.46;70.60;99896.20;1782401;80;21648;-80
2023/07/06 00:31:32;;;;;;;14.55;6.60;;;;;;;26.61;70.15;99902.81;1784883;80;21283;-80
2023/07/06 00:34:37;;;;;;;16.65;7.85;;;;;;;26.71;69.46;99904.13;1784087;80;21331;-80
2023/07/06 00:37:43;;;;;;;12.10;6.92;;;;;;;26.46;70.28;99903.20;1783487;80;21322;-80
2023/07/06 00:40:53;;;;;;;18.48;7.50;;;;;;;26.40;70.74;99904.91;1784777;80;21827;-80
2023/07/06 00:44:04;;;;;;;17.75;7.47;;;;;;;26.24;71.30;99902.19;1784687;80;21898;-80
2023/07/06 00:47:09;;;;;;;15.20;7.37;;;;;;;26.39;71.16;99900.41;1784811;80;21320;-80
2023/07/06 00:50:19;;;;;;;17.98;7.47;;;;;;;26.34;71.08;99894.84;1784755;80;21331;-81
2023/07/06 00:53:24;;;;;;;20.45;7.45;;;;;;;26.52;70.44;99900.36;1784784;80;21314;-80
2023/07/06 00:56:34;;;;;;;15.75;7.53;;;;;;;26.75;69.42;99906.06;1784604;80;21291;-80
2023/07/06 00:59:41;;;;;;;13.43;7.08;;;;;;;26.61;69.90;99902.25;1785121;80;21836;-81
2023/07/06 01:02:48;;;;;;;15.83;7.42;;;;;;;26.68;69.73;99906.98;1783980;80;21343;-80
2023/07/06 01:05:55;;;;;;;11.30;7.20;;;;;;;26.72;69.41;99903.86;1783364;80;21388;-80
2023/07/06 01:09:05;;;;;;;13.93;7.10;;;;;;;26.78;69.45;99909.42;1784733;80;21893;-80
2023/07/06 01:12:12;;;;;;;19.67;7.25;;;;;;;26.69;69.55;99908.64;1784771;80;21343;-80
2023/07/06 01:15:19;;;;;;;16.48;7.53;;;;;;;26.35;70.88;99912.80;1783992;80;21291;-80
2023/07/06 01:18:32;;;;;;;19.67;7.20;;;;;;;26.54;70.38;99910.17;1784531;80;21295;-79
2023/07/06 01:22:01;;;;;;;15.18;7.40;;;;;;;26.67;70.03;99910.05;1753425;82;21326;-80
2023/07/06 01:25:30;;;;;;;21.25;8.33;;;;;;;26.44;70.48;99915.83;1753126;82;21358;-80
2023/07/06 01:29:25;;;;;;;13.22;7.17;;;;;;;26.44;70.65;99910.22;1741468;81;21332;-80
2023/07/06 01:32:35;;;;;;;11.70;7.30;;;;;;;26.00;71.54;99911.86;1750343;82;21319;-80
2023/07/06 01:35:44;;;;;;;17.67;7.42;;;;;;;25.59;74.34;99909.75;1744932;82;21323;-80
2023/07/06 01:38:51;;;;;;;13.62;7.85;;;;;;;25.51;74.64;99913.16;1743267;82;21322;-80
2023/07/06 01:42:18;;;;;;;11.68;7.55;;;;;;;23.99;80.83;99914.74;1744412;82;22647;-80
2023/07/06 01:45:29;;;;;;;17.73;7.87;;;;;;;24.34;80.91;99914.57;1744048;82;21905;-80
2023/07/06 01:48:37;;;;;;;19.85;7.78;;;;;;;24.59;79.49;99916.02;1743261;82;21303;-80
2023/07/06 01:51:48;;;;;;;20.80;6.85;;;;;;;24.42;80.05;99915.46;1744602;82;21323;-80
2023/07/06 01:55:23;;;;;;;17.02;8.18;;;;;;;24.48;80.27;99912.39;1743182;82;21307;-80
2023/07/06 01:58:53;;;;;;;15.45;7.08;;;;;;;24.55;80.22;99916.30;1744617;82;21298;-80
2023/07/06 02:02:02;;;;;;;18.82;8.03;;;;;;;24.54;80.46;99920.21;1744572;82;21334;-80
2023/07/06 02:05:08;;;;;;;15.98;7.55;;;;;;;24.47;81.02;99919.66;1747139;80;21914;-80
2023/07/06 02:08:16;;;;;;;20.65;7.70;;;;;;;24.86;79.67;99930.30;1749821;82;21339;-80
2023/07/06 02:11:28;;;;;;;25.27;7.03;;;;;;;24.59;81.31;99927.20;1750613;82;21299;-80
2023/07/06 02:14:33;;;;;;;12.15;7.20;;;;;;;24.45;82.06;99924.67;1750504;82;21854;-80
2023/07/06 02:17:38;;;;;;;12.37;7.28;;;;;;;24.44;82.87;99925.80;1750388;82;21313;-80
2023/07/06 02:20:47;;;;;;;12.15;7.15;;;;;;;24.88;81.11;99931.69;1743499;82;21330;-80
2023/07/06 02:23:54;;;;;;;10.05;6.22;;;;;;;25.03;79.63;99928.06;1739051;82;21916;-80
2023/07/06 02:26:54;;;;;;;22.35;7.00;;;;;;;25.05;79.82;99931.41;1738690;82;21350;-80
2023/07/06 02:30:01;;;;;;;15.55;6.60;;;;;;;25.19;78.78;99930.30;1749613;82;21329;-81
2023/07/06 02:33:07;;;;;;;19.95;7.42;;;;;;;25.36;78.12;99932.25;1753542;82;21310;-81
2023/07/06 02:36:14;;;;;;;13.65;7.42;;;;;;;25.71;76.70;99927.09;1753102;82;21286;-81
2023/07/06 02:39:20;;;;;;;28.65;7.28;;;;;;;25.99;75.42;99927.00;1767255;80;21834;-81
2023/07/06 02:42:26;;;;;;;17.95;7.47;;;;;;;26.49;73.37;99929.27;1715994;83;21327;-80
2023/07/06 02:45:34;;;;;;;18.20;7.85;;;;;;;26.53;72.45;99927.27;1745902;82;21319;-80
2023/07/06 02:48:40;;;;;;;14.85;6.78;;;;;;;26.76;71.94;99934.38;1714721;83;21307;-80
2023/07/06 02:51:46;;;;;;;15.38;6.90;;;;;;;27.35;69.62;99929.67;1714865;82;21323;-80
2023/07/06 02:54:53;;;;;;;18.77;7.00;;;;;;;27.71;67.82;99927.34;1746590;82;21327;-80
2023/07/06 02:57:59;;;;;;;17.80;7.12;;;;;;;28.13;66.42;99934.66;1727929;83;21311;-80
2023/07/06 03:01:05;;;;;;;15.10;6.72;;;;;;;28.69;63.95;99928.24;1746672;82;21277;-81
2023/07/06 03:04:11;;;;;;;22.77;6.25;;;;;;;28.69;62.93;99925.42;1746649;82;21315;-81
2023/07/06 03:07:17;;;;;;;11.25;6.15;;;;;;;29.11;60.79;99930.67;1742340;82;21363;-81
2023/07/06 03:10:23;;;;;;;14.03;6.33;;;;;;;29.45;58.83;99933.13;1717892;83;21879;-80
2023/07/06 03:13:29;;;;;;;13.50;6.80;;;;;;;28.85;60.75;99933.07;1717735;83;21333;-80
2023/07/06 03:16:39;;;;;;;14.63;6.53;;;;;;;29.20;60.03;99930.22;1717558;83;21337;-81
2023/07/06 03:19:42;;;;;;;13.60;6.92;;;;;;;29.27;59.11;99935.73;1717844;83;21309;-81
2023/07/06 03:22:51;;;;;;;11.53;6.40;;;;;;;29.62;57.86;99922.70;1717720;82;21352;-80
2023/07/06 03:25:58;;;;;;;11.70;6.35;;;;;;;30.03;55.69;99926.92;1717819;83;21344;-81
2023/07/06 03:29:04;;;;;;;16.70;6.95;;;;;;;29.90;56.06;99934.81;1717570;83;21349;-81
2023/07/06 03:32:11;;;;;;;19.00;6.90;;;;;;;29.72;56.96;99923.89;1704838;84;21325;-81
2023/07/06 03:35:18;;;;;;;17.15;6.95;;;;;;;29.72;56.96;99923.89;1704731;84;21932;-80
2023/07/06 03:38:25;;;;;;;17.35;7.53;;;;;;;29.92;56.32;99926.86;1703633;83;21884;-80
2023/07/06 03:41:32;;;;;;;15.30;6.80;;;;;;;30.39;55.25;99924.72;1704914;84;21317;-81
2023/07/06 03:44:39;;;;;;;19.57;6.85;;;;;;;30.58;54.73;99921.16;1704198;84;21369;-81
2023/07/06 03:47:47;;;;;;;19.42;6.33;;;;;;;30.85;53.42;99927.89;1703950;84;21385;-81
2023/07/06 03:50:49;;;;;;;9.88;6.12;;;;;;;31.03;52.33;99933.34;1703399;84;21332;-81
2023/07/06 03:53:55;;;;;;;11.63;6.60;;;;;;;30.37;53.63;99928.45;1704807;83;21303;-81
2023/07/06 03:57:05;;;;;;;21.27;7.58;;;;;;;29.86;55.07;99928.12;1704591;84;21361;-81
2023/07/06 04:00:24;;;;;;;15.20;6.87;;;;;;;30.29;53.83;99925.80;1703302;84;21963;-80
2023/07/06 04:03:32;;;;;;;19.70;6.90;;;;;;;30.01;54.16;99924.39;1703738;84;21365;-80
2023/07/06 04:06:40;;;;;;;17.10;7.17;;;;;;;30.15;53.61;99922.16;1704618;84;21348;-80
2023/07/06 04:09:47;;;;;;;16.40;6.20;;;;;;;30.17;52.70;99923.53;1704887;83;21336;-81
2023/07/06 04:12:54;;;;;;;11.33;6.83;;;;;;;30.63;51.57;99921.61;1704756;84;21879;-80
2023/07/06 04:16:00;;;;;;;11.03;6.97;;;;;;;30.45;51.45;99919.23;1704265;84;22006;-80
2023/07/06 04:19:07;;;;;;;13.80;6.35;;;;;;;30.47;51.38;99923.39;1704853;84;21309;-81
2023/07/06 04:22:13;;;;;;;19.15;6.80;;;;;;;30.54;50.52;99920.16;1705042;84;21321;-81
2023/07/06 04:25:21;;;;;;;19.05;6.95;;;;;;;31.08;50.04;99924.48;1734080;82;21890;-81
2023/07/06 04:28:26;;;;;;;22.20;6.60;;;;;;;30.98;49.41;99922.75;1732748;82;21348;-80
2023/07/06 04:31:31;;;;;;;13.60;6.70;;;;;;;31.45;48.92;99924.64;1727901;82;21915;-80
2023/07/06 04:34:40;;;;;;;11.50;6.20;;;;;;;31.07;49.21;99918.00;1724683;83;22586;-80
2023/07/06 04:37:46;;;;;;;18.67;6.00;;;;;;;31.23;48.87;99933.37;1725708;83;21328;-80
2023/07/06 04:40:52;;;;;;;19.95;6.37;;;;;;;31.34;48.84;99924.68;1696951;84;21686;-80
2023/07/06 04:43:58;;;;;;;15.32;6.30;;;;;;;31.44;48.64;99922.98;1696860;84;21308;-80
2023/07/06 04:47:04;;;;;;;21.12;5.87;;;;;;;31.49;47.88;99920.02;1695645;84;21311;-80
2023/07/06 04:50:11;;;;;;;18.65;5.47;;;;;;;31.55;47.36;99920.11;1695620;84;21865;-80
2023/07/06 04:53:17;;;;;;;13.88;5.55;;;;;;;31.84;45.84;99922.41;1697804;83;21315;-80
2023/07/06 04:56:24;;;;;;;21.45;5.62;;;;;;;31.86;45.34;99911.63;1725929;83;21867;-80
2023/07/06 04:59:30;;;;;;;11.30;4.60;;;;;;;32.02;44.20;99920.48;1724861;83;21321;-80
2023/07/06 05:02:37;;;;;;;15.55;5.42;;;;;;;32.10;44.23;99918.84;1725389;83;21367;-80
2023/07/06 05:05:46;;;;;;;23.15;5.75;;;;;;;32.01;43.28;99924.48;1725963;83;21309;-80
2023/07/06 05:08:54;;;;;;;13.38;5.37;;;;;;;31.89;44.48;99922.27;1718022;83;21344;-80
2023/07/06 05:12:00;;;;;;;9.83;5.20;;;;;;;31.82;44.19;99927.58;1696928;84;21318;-80
2023/07/06 05:15:07;;;;;;;15.75;5.30;;;;;;;31.94;43.57;99926.94;1696967;84;21317;-80
2023/07/06 05:18:13;;;;;;;11.83;5.53;;;;;;;32.14;43.39;99920.69;1738813;82;21324;-80
2023/07/06 05:21:19;;;;;;;22.87;5.95;;;;;;;32.19;43.97;99922.52;1738885;82;21296;-80
2023/07/06 05:24:25;;;;;;;18.90;5.92;;;;;;;32.27;43.89;99921.69;1738884;81;21314;-80
2023/07/06 05:27:31;;;;;;;19.67;5.25;;;;;;;32.57;42.86;99924.17;1740395;82;21301;-80
2023/07/06 05:30:36;;;;;;;23.00;6.05;;;;;;;32.63;43.80;99929.91;1740421;82;21341;-80
2023/07/06 05:33:42;;;;;;;12.50;5.03;;;;;;;33.01;41.67;99918.75;1738358;82;21329;-80
2023/07/06 05:36:47;;;;;;;16.07;5.10;;;;;;;33.22;40.54;99924.55;1740304;82;21298;-80
2023/07/06 05:39:54;;;;;;;12.50;4.87;;;;;;;33.25;41.02;99916.77;1733528;81;21303;-80
2023/07/06 05:43:02;;;;;;;10.18;4.17;;;;;;;33.49;39.60;99916.81;1729671;83;21292;-80
2023/07/06 05:46:07;;;;;;;12.80;4.97;;;;;;;33.76;40.53;99915.54;1729268;83;22644;-80
2023/07/06 05:49:13;;;;;;;13.22;5.03;;;;;;;33.86;40.94;99914.32;1728128;83;21363;-80
2023/07/06 05:52:21;;;;;;;19.37;5.05;;;;;;;34.52;40.39;99911.77;1729442;83;21311;-80
2023/07/06 05:55:29;;;;;;;7.58;4.42;;;;;;;34.50;39.44;99909.87;1756360;81;22624;-80
2023/07/06 05:58:34;;;;;;;17.67;4.58;;;;;;;34.53;38.53;99909.99;1770699;81;21296;-81
2023/07/06 06:01:40;;;;;;;14.80;5.08;;;;;;;34.82;37.64;99901.99;1759792;81;21276;-81
2023/07/06 06:04:51;;;;;;;11.97;4.55;;;;;;;34.68;37.79;99902.05;1756859;81;21268;-81
2023/07/06 06:07:54;;;;;;;23.70;5.08;;;;;;;34.96;38.21;99911.67;1756964;81;21296;-81
2023/07/06 06:11:02;;;;;;;8.90;4.15;;;;;;;35.13;35.82;99905.55;1749250;81;21329;-81
2023/07/06 06:14:11;;;;;;;12.63;4.78;;;;;;;35.20;36.38;99906.65;1738777;82;21791;-81
2023/07/06 06:17:18;;;;;;;9.50;4.22;;;;;;;35.55;35.42;99903.41;1738012;82;21331;-81
2023/07/06 06:20:24;;;;;;;11.35;3.98;;;;;;;35.47;35.40;99917.14;1750084;81;22410;-80
2023/07/06 06:23:32;;;;;;;9.93;4.03;;;;;;;35.57;34.25;99909.56;1749283;81;22007;-81
2023/07/06 06:26:42;;;;;;;9.55;4.15;;;;;;;35.52;35.00;99906.95;1752754;81;21831;-81
2023/07/06 06:29:48;;;;;;;19.37;4.53;;;;;;;35.86;33.98;99913.41;1752444;81;21280;-81
2023/07/06 06:32:56;;;;;;;14.93;4.80;;;;;;;35.75;34.55;99911.59;1757691;80;21288;-81
2023/07/06 06:36:04;;;;;;;7.75;4.37;;;;;;;35.14;34.88;99912.30;1763387;80;21267;-81
2023/07/06 06:39:10;;;;;;;12.75;4.60;;;;;;;34.70;36.07;99905.36;1778982;80;21359;-80
2023/07/06 06:42:18;;;;;;;26.10;4.42;;;;;;;35.00;36.06;99908.94;1777678;80;21363;-80
2023/07/06 06:45:25;;;;;;;11.35;3.70;;;;;;;35.17;35.97;99909.36;1779231;80;21316;-80
2023/07/06 06:48:32;;;;;;;12.30;3.90;;;;;;;35.44;35.88;99906.46;1777883;80;21335;-80
2023/07/06 06:51:39;;;;;;;18.82;4.15;;;;;;;35.81;35.97;99905.34;1777663;80;21300;-80
2023/07/06 06:54:44;;;;;;;12.65;3.92;;;;;;;35.80;34.93;99909.34;1771901;80;21862;-81
2023/07/06 06:57:52;;;;;;;12.45;3.62;;;;;;;35.91;33.48;99915.41;1748283;82;21332;-81
2023/07/06 07:01:07;;;;;;;9.93;3.80;;;;;;;36.06;33.64;99918.16;1746882;82;21303;-81
2023/07/06 07:04:14;;;;;;;12.82;3.80;;;;;;;35.75;33.27;99910.17;1747103;82;21866;-80
2023/07/06 07:07:13;;;;;;;11.95;4.03;;;;;;;36.00;32.47;99906.79;1748147;82;21898;-80
2023/07/06 07:13:06;;;;;;;11.35;4.20;;;;;;;35.97;32.19;99911.77;1757011;80;21283;-81
2023/07/06 07:16:12;;;;;;;11.65;3.35;;;;;;;36.07;32.84;99899.89;1779045;80;21323;-81
2023/07/06 07:19:19;;;;;;;11.20;3.40;;;;;;;36.24;32.07;99905.33;1779093;80;21862;-80
2023/07/06 07:22:24;;;;;;;17.17;3.47;;;;;;;36.46;31.59;99909.68;1778901;80;21897;-81
2023/07/06 07:25:30;;;;;;;13.93;4.30;;;;;;;36.45;31.69;99902.34;1779815;80;21287;-81
2023/07/06 07:28:37;;;;;;;18.57;4.30;;;;;;;36.18;31.92;99901.05;1779726;80;21855;-81
2023/07/06 07:31:36;;;;;;;6.22;3.40;;;;;;;36.34;31.77;99899.13;1777789;80;21327;-81
2023/07/06 07:34:28;;;;;;;13.50;3.67;;;;;;;36.42;31.45;99907.88;1779042;80;21303;-80
2023/07/06 07:37:34;;;;;;;14.73;3.67;;;;;;;36.74;30.06;99908.89;1783397;80;21849;-81
2023/07/06 07:40:41;;;;;;;10.43;3.72;;;;;;;36.82;30.45;99900.19;1783940;80;21922;-81
2023/07/06 07:43:48;;;;;;;13.30;4.00;;;;;;;36.75;30.80;99911.39;1784577;80;21292;-80
2023/07/06 07:46:53;;;;;;;7.42;3.30;;;;;;;36.86;28.92;99903.15;1784518;80;21297;-80
2023/07/06 07:49:59;;;;;;;14.80;3.02;;;;;;;36.97;29.28;99901.45;1784768;80;21315;-81
2023/07/06 07:53:04;;;;;;;12.75;3.58;;;;;;;36.89;29.48;99901.58;1784592;80;21628;-80
2023/07/06 07:56:10;;;;;;;12.93;3.87;;;;;;;36.93;30.16;99896.84;1784573;80;21294;-81
2023/07/06 07:59:16;;;;;;;10.32;3.45;;;;;;;36.83;29.50;99891.87;1784532;80;21592;-81
2023/07/06 08:02:21;;;;;;;11.10;3.95;;;;;;;37.01;28.74;99895.86;1783593;80;21322;-80
2023/07/06 08:05:29;;;;;;;17.00;3.90;;;;;;;37.13;28.36;99896.41;1784512;80;21327;-81
2023/07/06 08:08:36;;;;;;;16.48;3.87;;;;;;;37.15;29.32;99902.56;1784237;80;21339;-81
2023/07/06 08:11:49;;;;;;;12.03;3.73;;;;;;;37.03;28.66;99904.30;1783822;80;21913;-80
2023/07/06 08:14:53;;;;;;;13.32;3.98;;;;;;;37.31;28.71;99902.83;1784411;80;21287;-81
2023/07/06 08:18:00;;;;;;;19.42;3.98;;;;;;;37.14;29.11;99908.86;1784066;80;21319;-81
2023/07/06 08:21:06;;;;;;;13.70;4.25;;;;;;;37.26;28.53;99901.64;1784237;80;21298;-81
2023/07/06 08:24:13;;;;;;;17.52;3.95;;;;;;;37.02;29.14;99901.19;1783174;80;21335;-81
2023/07/06 08:27:19;;;;;;;17.37;3.85;;;;;;;37.29;27.68;99902.95;1758754;80;21285;-80
2023/07/06 08:30:25;;;;;;;6.72;3.52;;;;;;;37.48;28.00;99895.95;1752175;80;21308;-80
2023/07/06 08:33:35;;;;;;;13.10;3.65;;;;;;;37.55;28.53;99898.19;1752143;82;21305;-81
2023/07/06 08:36:39;;;;;;;9.43;3.37;;;;;;;37.44;29.13;99901.34;1750247;81;21944;-81
2023/07/06 08:39:45;;;;;;;10.58;2.67;;;;;;;37.72;27.77;99897.80;1747502;82;21341;-80
2023/07/06 08:42:55;;;;;;;7.87;2.67;;;;;;;37.79;26.41;99902.27;1776898;80;21279;-81
2023/07/06 08:46:04;;;;;;;11.57;2.70;;;;;;;37.90;26.78;99893.99;1778996;80;21311;-80
2023/07/06 08:49:08;;;;;;;9.78;2.77;;;;;;;37.87;25.92;99896.15;1778416;80;21846;-80
2023/07/06 08:52:18;;;;;;;11.55;3.05;;;;;;;37.84;26.05;99894.87;1763820;80;21895;-80
2023/07/06 08:55:24;;;;;;;10.40;2.53;;;;;;;37.90;26.68;99890.31;1747573;82;21367;-80
2023/07/06 08:58:33;;;;;;;10.10;3.02;;;;;;;37.83;26.30;99892.34;1754971;80;21415;-80
2023/07/06 09:01:38;;;;;;;13.85;3.08;;;;;;;38.08;25.73;99885.86;1770737;80;21276;-81
2023/07/06 09:04:46;;;;;;;10.53;2.42;;;;;;;38.13;24.71;99888.42;1783845;80;21323;-81
2023/07/06 09:07:53;;;;;;;7.83;2.62;;;;;;;38.19;25.12;99886.92;1778316;80;21336;-81
2023/07/06 09:10:59;;;;;;;10.50;2.50;;;;;;;38.45;25.16;99892.66;1775847;80;21319;-81
2023/07/06 09:14:20;;;;;;;8.98;2.50;;;;;;;38.47;24.38;99878.81;1747445;82;21877;-80
2023/07/06 09:17:24;;;;;;;11.03;2.62;;;;;;;38.53;25.02;99880.16;1748286;82;21311;-80
2023/07/06 09:20:30;;;;;;;10.75;2.45;;;;;;;38.60;24.77;99886.04;1746854;82;21315;-80
2023/07/06 09:23:35;;;;;;;6.67;2.35;;;;;;;38.60;24.48;99888.90;1746893;82;21304;-81
2023/07/06 09:26:42;;;;;;;8.43;2.62;;;;;;;38.57;24.83;99884.75;1748227;81;21322;-81
2023/07/06 09:29:48;;;;;;;9.48;2.75;;;;;;;38.70;25.17;99886.04;1746870;82;21301;-81
2023/07/06 09:32:57;;;;;;;9.80;2.75;;;;;;;38.82;24.22;99874.49;1747289;82;21353;-80
2023/07/06 09:36:05;;;;;;;16.48;2.45;;;;;;;39.16;23.55;99876.99;1744627;81;21988;-81
2023/07/06 09:39:14;;;;;;;11.63;2.52;;;;;;;38.89;24.42;99878.09;1748274;82;21897;-80
2023/07/06 09:42:21;;;;;;;8.03;2.37;;;;;;;38.94;24.20;99883.50;1762154;80;21335;-80
2023/07/06 09:45:36;;;;;;;5.00;2.40;;;;;;;38.91;23.63;99877.09;1778893;80;21288;-81
2023/07/06 09:48:46;;;;;;;12.05;2.52;;;;;;;39.00;24.07;99877.69;1779094;80;21308;-81
2023/07/06 09:52:12;;;;;;;7.70;2.85;;;;;;;38.79;23.41;99885.24;1779071;80;21335;-80
2023/07/06 09:55:31;;;;;;;8.05;2.40;;;;;;;38.67;23.74;99884.75;1778932;80;21346;-80
2023/07/06 09:58:36;;;;;;;9.00;2.25;;;;;;;38.93;23.82;99877.56;1749598;80;21903;-81
2023/07/06 10:02:02;;;;;;;6.83;2.70;;;;;;;38.79;23.93;99876.06;1748181;82;21285;-80
2023/07/06 10:05:33;;;;;;;5.97;1.95;;;;;;;38.87;24.42;99871.33;1748293;82;21321;-81
2023/07/06 10:08:47;;;;;;;4.30;1.98;;;;;;;39.04;23.19;99887.98;1748329;82;21313;-80
2023/07/06 10:12:01;;;;;;;10.85;2.40;;;;;;;39.21;22.91;99887.33;1746820;80;21921;-80
2023/07/06 10:15:08;;;;;;;8.65;2.45;;;;;;;39.21;22.94;99885.29;1748550;82;21912;-81
2023/07/06 10:18:21;;;;;;;5.15;2.40;;;;;;;38.86;23.84;99879.05;1748144;82;21306;-80
2023/07/06 10:21:49;;;;;;;8.58;2.50;;;;;;;39.28;23.36;99873.97;1748948;82;21833;-81
2023/07/06 10:25:08;;;;;;;;;;;;;;;39.05;23.77;99873.08;1750714;82;22602;-80
2023/07/06 10:28:37;;;;;;;8.78;2.22;;;;;;;38.84;23.22;99877.19;1740921;80;20669;-81
2023/07/06 10:31:54;;;;;;;8.80;2.65;;;;;;;38.70;23.71;99886.86;1778924;80;21863;-81
2023/07/06 10:35:11;;;;;;;5.15;2.30;;;;;;;38.78;22.86;99877.27;1779008;80;21288;-80
2023/07/06 10:38:18;;;;;;;4.03;2.10;;;;;;;38.75;23.21;99882.88;1779889;80;21942;-81
2023/07/06 10:41:22;;;;;;;9.20;2.67;;;;;;;38.79;23.88;99880.95;1783850;80;21318;-80
2023/07/06 10:44:46;;;;;;;4.55;2.02;;;;;;;38.68;23.91;99866.42;1783174;80;21303;-81
2023/07/06 10:47:47;;;;;;;7.10;2.12;;;;;;;38.92;23.79;99869.59;1785083;80;21303;-81
2023/07/06 10:50:33;;;;;;;7.17;2.40;;;;;;;39.05;22.70;99868.22;1784458;80;21284;-81
2023/07/06 10:53:51;;;;;;;7.40;2.15;;;;;;;38.84;23.08;99863.50;1747110;80;21350;-80
2023/07/06 10:57:10;;;;;;;4.75;2.10;;;;;;;38.97;23.22;99859.88;1782914;80;21324;-80
2023/07/06 11:00:24;;;;;;;6.53;2.12;;;;;;;38.99;23.29;99864.00;1753795;82;21789;-81
2023/07/06 11:03:34;;;;;;;5.17;2.58;;;;;;;39.19;23.39;99869.06;1752302;82;21924;-80
2023/07/06 11:06:58;;;;;;;4.47;2.20;;;;;;;39.17;23.09;99864.95;1753637;82;21299;-80
2023/07/06 11:10:33;;;;;;;11.65;2.33;;;;;;;39.16;23.72;99867.59;1753522;82;21322;-80
2023/07/06 11:13:44;;;;;;;4.87;2.30;;;;;;;38.90;24.19;99867.69;1771710;80;21969;-80
2023/07/06 11:17:06;;;;;;;6.80;2.77;;;;;;;38.92;23.71;99863.87;1745114;80;21288;-80
2023/07/06 11:20:19;;;;;;;8.05;2.27;;;;;;;39.01;23.49;99867.32;1784742;80;21311;-81
2023/07/06 11:23:29;;;;;;;8.48;2.20;;;;;;;39.09;23.80;99862.55;1784323;80;22548;-80
2023/07/06 11:26:59;;;;;;;6.03;2.17;;;;;;;39.36;24.39;99866.34;1785226;80;21326;-80
2023/07/06 11:30:47;;;;;;;7.00;2.45;;;;;;;39.51;22.89;99855.38;1782563;80;21322;-81
2023/07/06 11:34:03;;;;;;;12.82;2.50;;;;;;;39.40;23.45;99860.09;1783755;80;21354;-80
2023/07/06 11:37:17;;;;;;;2.40;1.85;;;;;;;39.44;22.87;99853.02;1777470;80;21291;-80
2023/07/06 11:40:46;;;;;;;10.68;2.55;;;;;;;39.07;23.48;99847.81;1783198;80;21307;-80
2023/07/06 11:44:01;;;;;;;14.68;2.52;;;;;;;39.11;23.60;99845.85;1767366;80;21329;-81
2023/07/06 11:47:35;;;;;;;4.42;2.30;;;;;;;39.16;22.92;99843.28;1753444;82;21308;-80
2023/07/06 11:50:46;;;;;;;7.00;2.40;;;;;;;39.15;23.38;99841.03;1716226;83;21877;-81
2023/07/06 11:57:24;;;;;;;8.95;2.40;;;;;;;39.42;23.84;99835.38;1717470;83;21366;-80
2023/07/06 12:03:35;;;;;;;5.80;2.92;;;;;;;39.38;23.24;99835.31;1716282;83;21365;-81
2023/07/06 12:06:41;;;;;;;10.50;2.95;;;;;;;39.37;23.62;99836.53;1717794;83;21302;-81
2023/07/06 12:09:48;;;;;;;9.98;2.40;;;;;;;39.57;23.60;99818.09;1717585;83;21306;-80
2023/07/06 12:12:56;;;;;;;5.92;2.33;;;;;;;38.30;24.31;99823.80;1716649;83;21216;-81
2023/07/06 12:15:49;;;;;;;9.98;2.55;;;;;;;38.01;24.52;99817.17;1718208;83;21322;-80
2023/07/06 12:19:12;;;;;;;17.67;2.70;;;;;;;38.03;25.39;99812.75;1718190;83;21869;-81
2023/07/06 12:22:23;;;;;;;12.33;2.37;;;;;;;38.04;25.85;99803.59;1718147;83;21331;-80
2023/07/06 12:25:31;;;;;;;10.80;2.58;;;;;;;38.76;24.46;99801.07;1716053;83;21881;-80
2023/07/06 12:28:37;;;;;;;4.70;2.00;;;;;;;38.52;24.93;99805.06;1716458;83;21338;-80
2023/07/06 12:31:44;;;;;;;3.83;2.37;;;;;;;38.31;25.23;99808.31;1717393;83;21313;-81
2023/07/06 12:34:50;;;;;;;10.80;2.70;;;;;;;37.94;26.55;99801.33;1715527;83;21374;-81
2023/07/06 12:37:56;;;;;;;5.08;2.40;;;;;;;38.02;25.96;99793.98;1708939;83;21304;-81
2023/07/06 12:41:22;;;;;;;8.18;2.77;;;;;;;38.66;25.35;99791.66;1701031;83;21347;-80
2023/07/06 12:44:29;;;;;;;12.00;2.87;;;;;;;38.55;25.32;99786.34;1718876;83;21327;-81
2023/07/06 12:47:46;;;;;;;8.50;2.50;;;;;;;38.74;24.94;99784.89;1720232;83;21339;-81
2023/07/06 12:50:54;;;;;;;3.67;2.25;;;;;;;37.89;25.45;99777.36;1720251;83;21311;-81
2023/07/06 12:54:01;;;;;;;8.13;2.30;;;;;;;38.14;25.81;99781.58;1706105;83;21329;-80
2023/07/06 12:57:09;;;;;;;8.25;2.33;;;;;;;38.13;26.77;99772.80;1694036;84;21341;-81
2023/07/06 13:00:24;;;;;;;6.67;2.20;;;;;;;38.22;25.44;99775.44;1690088;83;21302;-80
2023/07/06 13:03:31;;;;;;;5.67;2.60;;;;;;;38.32;25.45;99768.55;1690072;84;21341;-80
2023/07/06 13:06:37;;;;;;;7.05;2.50;;;;;;;37.75;24.51;99777.22;1691790;85;21302;-81
2023/07/06 13:09:42;;;;;;;6.30;2.37;;;;;;;37.66;24.65;99770.89;1707098;83;21364;-80
2023/07/06 13:12:54;;;;;;;6.40;2.25;;;;;;;37.69;25.08;99767.30;1720841;82;21177;-80
2023/07/06 13:15:53;;;;;;;4.55;2.10;;;;;;;37.95;25.52;99768.12;1720452;83;21347;-81
2023/07/06 13:19:01;;;;;;;7.15;2.50;;;;;;;37.41;25.43;99773.16;1719984;82;21217;-81
2023/07/06 13:22:07;;;;;;;5.03;2.27;;;;;;;38.02;24.75;99761.76;1721452;83;21304;-80
2023/07/06 13:25:17;;;;;;;7.72;2.50;;;;;;;37.84;25.10;99762.17;1721008;83;21307;-81
2023/07/06 13:28:23;;;;;;;6.03;2.22;;;;;;;37.76;26.30;99763.17;1706220;83;21338;-80
2023/07/06 13:31:29;;;;;;;6.67;2.20;;;;;;;37.96;26.35;99753.23;1721405;83;21316;-81
2023/07/06 13:34:38;;;;;;;6.45;2.30;;;;;;;37.81;24.96;99755.75;1721163;83;21332;-80
2023/07/06 13:37:46;;;;;;;6.25;1.92;;;;;;;37.93;24.53;99761.14;1721446;83;21312;-80
2023/07/06 13:40:53;;;;;;;5.45;2.17;;;;;;;37.85;24.82;99757.30;1721315;83;21296;-80
2023/07/06 13:44:00;;;;;;;7.58;2.30;;;;;;;37.79;24.71;99769.58;1706431;83;21335;-81
2023/07/06 13:47:07;;;;;;;13.62;2.40;;;;;;;38.03;24.69;99764.83;1719609;83;21830;-81
2023/07/06 13:50:14;;;;;;;8.25;2.72;;;;;;;37.78;25.51;99762.22;1718807;83;21311;-81
2023/07/06 13:53:20;;;;;;;3.58;2.27;;;;;;;37.77;24.70;99766.25;1719883;83;21845;-81
2023/07/06 13:56:27;;;;;;;6.37;2.17;;;;;;;37.93;25.37;99762.58;1691558;85;21922;-80
2023/07/06 13:59:33;;;;;;;7.72;2.40;;;;;;;38.01;25.00;99755.80;1697242;83;21327;-80
2023/07/06 14:02:38;;;;;;;3.10;2.05;;;;;;;37.51;26.04;99751.80;1720623;83;21350;-81
2023/07/06 14:05:45;;;;;;;4.92;2.40;;;;;;;37.67;26.05;99746.86;1721098;83;21356;-81
2023/07/06 14:08:52;;;;;;;6.75;2.52;;;;;;;37.87;24.87;99745.50;1720262;83;21323;-80
2023/07/06 14:11:57;;;;;;;6.33;2.20;;;;;;;38.01;25.30;99748.66;1721468;83;21327;-80
2023/07/06 14:15:03;;;;;;;7.53;2.65;;;;;;;38.12;24.88;99744.03;1720809;83;21327;-81
2023/07/06 14:18:09;;;;;;;4.17;2.40;;;;;;;38.29;24.75;99737.02;1721304;83;21348;-80
2023/07/06 14:21:15;;;;;;;8.30;2.10;;;;;;;37.51;25.79;99751.19;1721477;83;21868;-80
2023/07/06 14:24:24;;;;;;;5.62;1.98;;;;;;;36.87;26.63;99756.63;1713797;83;21327;-80
2023/07/06 14:27:31;;;;;;;5.87;2.50;;;;;;;36.56;27.74;99756.00;1716420;83;21303;-81
2023/07/06 14:30:39;;;;;;;3.77;2.30;;;;;;;36.56;28.11;99756.00;1705970;83;22637;-81
2023/07/06 14:33:48;;;;;;;8.23;2.40;;;;;;;36.98;28.12;99754.91;1692523;85;21328;-80
2023/07/06 14:36:54;;;;;;;3.92;2.37;;;;;;;36.98;28.20;99755.50;1691823;85;21378;-81
2023/07/06 14:40:00;;;;;;;7.20;2.77;;;;;;;36.75;28.56;99750.42;1692344;85;21356;-81
2023/07/06 14:43:06;;;;;;;5.95;2.22;;;;;;;36.68;28.59;99747.97;1693748;84;21356;-82
2023/07/06 14:46:13;;;;;;;8.38;2.65;;;;;;;36.67;28.85;99740.63;1695621;83;21329;-81
2023/07/06 14:49:18;;;;;;;5.70;2.15;;;;;;;36.53;29.41;99749.00;1695685;84;21365;-81
2023/07/06 14:52:25;;;;;;;7.65;2.60;;;;;;;36.47;29.75;99743.34;1696983;84;21321;-81